logo tempoitalia

Diretta Meteo Sabadell, Spagnalunedì 31 agosto ore 07:00

Mappa
Sereno 18 °C Sereno 24 Ore: T.min 18 T.max 32
Ponente Nord Km/h 3.7 Punto di rugiada: 11 °C Umidità: 63% Visibilità: 10 Km
Il sole sorge alle: 07:16 Il sole tramonta alle: 20:27
31 Agosto 2026 07:00 tempo osservato: Sereno Sereno 18 63 1018 vento: Nord N 3.7
31 Agosto 2026 06:30 tempo osservato: Sereno Sereno 18 72 1018 vento: Nord O 7.4
31 Agosto 2026 06:00 tempo osservato: Sereno Sereno 18 72 1018 vento: Nord O 9.3
31 Agosto 2026 05:30 tempo osservato: Sereno Sereno 18 77 1018 vento: Nord N 5.5
31 Agosto 2026 05:00 tempo osservato: Sereno Sereno 19 72 1018 vento: Nord N 3.7
31 Agosto 2026 04:30 tempo osservato: Sereno Sereno 19 77 1017 vento: Nord O 7.4
31 Agosto 2026 04:00 tempo osservato: Sereno Sereno 19 82 1017 vento: Nord N 1.8
31 Agosto 2026 03:30 tempo osservato: Sereno Sereno 21 73 1017 vento: Nord N 0
31 Agosto 2026 03:00 tempo osservato: Sereno Sereno 21 68 1017 vento: Nord N 5.5
31 Agosto 2026 02:30 tempo osservato: Sereno Sereno 21 73 1017 vento: Nord N 1.8
31 Agosto 2026 02:00 tempo osservato: Sereno Sereno 22 78 1017 vento: Nord N 3.7
31 Agosto 2026 01:30 tempo osservato: Sereno Sereno 22 73 1017 vento: Nord N 3.7
31 Agosto 2026 01:00 tempo osservato: Sereno Sereno 23 64 1017 vento: Nord N 5.5
31 Agosto 2026 00:30 tempo osservato: Sereno Sereno 23 60 1017 vento: Nord O 9.3
31 Agosto 2026 00:00 tempo osservato: Sereno Sereno 23 60 1017 vento: Nord O 9.3
30 Agosto 2026 23:30 tempo osservato: Sereno Sereno 22 56 1017 vento: Nord O 7.4
30 Agosto 2026 23:00 tempo osservato: Sereno Sereno 23 49 1017 vento: Nord O 7.4
30 Agosto 2026 22:30 tempo osservato: Sereno Sereno 24 43 1017 vento: Nord O 7.4
30 Agosto 2026 22:00 tempo osservato: Sereno Sereno 25 38 1016 vento: Nord N 0
30 Agosto 2026 21:30 tempo osservato: Sereno Sereno 26 39 1016 vento: Nord N 5.5
30 Agosto 2026 21:00 tempo osservato: Sereno Sereno 27 36 1016 vento: Nord N 3.7
30 Agosto 2026 20:30 tempo osservato: Sereno Sereno 28 37 1016 vento: Nord S 9.3
30 Agosto 2026 20:00 tempo osservato: Sereno Sereno 29 35 1015 vento: Nord S 11.1
30 Agosto 2026 19:30 tempo osservato: Sereno Sereno 29 39 1015 vento: Nord S/SE 14.8
30 Agosto 2026 19:00 tempo osservato: Sereno Sereno 30 35 1015 vento: Nord S 14.8
30 Agosto 2026 18:30 tempo osservato: Sereno Sereno 30 35 1015 vento: Nord S 16.7
30 Agosto 2026 18:00 tempo osservato: Sereno Sereno 31 35 1015 vento: Nord S 18.5
30 Agosto 2026 17:30 tempo osservato: Sereno Sereno 31 33 1015 vento: Nord S 18.5
30 Agosto 2026 17:00 tempo osservato: Sereno Sereno 32 29 1015 vento: Nord S/SE 18.5
30 Agosto 2026 16:30 tempo osservato: Sereno Sereno 31 33 1016 vento: Nord S/SE 18.5
30 Agosto 2026 16:00 tempo osservato: Sereno Sereno 32 33 1016 vento: Nord S 18.5
30 Agosto 2026 15:30 tempo osservato: Sereno Sereno 31 37 1016 vento: Nord S 18.5
30 Agosto 2026 15:00 tempo osservato: Sereno Sereno 32 35 1016 vento: Nord S 16.7
30 Agosto 2026 14:30 tempo osservato: Sereno Sereno 32 35 1016 vento: Nord S/SE 16.7
30 Agosto 2026 14:00 tempo osservato: Sereno Sereno 31 37 1017 vento: Nord SE 16.7
30 Agosto 2026 13:30 tempo osservato: Sereno Sereno 31 35 1017 vento: Nord SE 14.8
30 Agosto 2026 13:00 tempo osservato: Sereno Sereno 32 31 1017 vento: Nord E/SE 7.4
30 Agosto 2026 12:30 tempo osservato: Sereno Sereno 30 37 1018 vento: Nord N 5.5
30 Agosto 2026 12:00 tempo osservato: Sereno Sereno 30 40 1018 vento: Nord N 5.5
30 Agosto 2026 11:30 tempo osservato: Sereno Sereno 29 42 1018 vento: Nord N 1.8
30 Agosto 2026 11:00 tempo osservato: Sereno Sereno 28 45 1018 vento: Nord N 1.8
30 Agosto 2026 10:30 tempo osservato: Sereno Sereno 26 54 1018 vento: Nord N 1.8
30 Agosto 2026 10:00 tempo osservato: Sereno Sereno 25 53 1018 vento: Nord N 0
30 Agosto 2026 09:30 tempo osservato: Sereno Sereno 24 57 1018 vento: Nord N 0
30 Agosto 2026 09:00 tempo osservato: Sereno Sereno 24 57 1018 vento: Nord N 0
30 Agosto 2026 08:30 tempo osservato: Sereno Sereno 20 72 1018 vento: Nord N 0
30 Agosto 2026 08:00 tempo osservato: Sereno Sereno 18 82 1018 vento: Nord N 3.7